sensor_id;sensor_type;location;lat;lon;timestamp;P1;durP1;ratioP1;P2;durP2;ratioP2
20415;SDS011;10367;52.202;5.996;2023-08-08T00:02:06;18.87;;;17.20;;
20415;SDS011;10367;52.202;5.996;2023-08-08T00:04:35;19.70;;;18.00;;
20415;SDS011;10367;52.202;5.996;2023-08-08T00:07:04;18.37;;;16.90;;
20415;SDS011;10367;52.202;5.996;2023-08-08T00:09:37;19.77;;;18.10;;
20415;SDS011;10367;52.202;5.996;2023-08-08T00:12:06;21.30;;;18.03;;
20415;SDS011;10367;52.202;5.996;2023-08-08T00:14:40;19.60;;;17.90;;
20415;SDS011;10367;52.202;5.996;2023-08-08T00:17:09;19.90;;;18.17;;
20415;SDS011;10367;52.202;5.996;2023-08-08T00:19:38;18.70;;;17.13;;
20415;SDS011;10367;52.202;5.996;2023-08-08T00:22:07;19.80;;;17.63;;
20415;SDS011;10367;52.202;5.996;2023-08-08T00:24:37;21.63;;;17.87;;
20415;SDS011;10367;52.202;5.996;2023-08-08T00:27:06;21.90;;;17.73;;
20415;SDS011;10367;52.202;5.996;2023-08-08T00:29:35;19.77;;;17.73;;
20415;SDS011;10367;52.202;5.996;2023-08-08T00:32:05;24.33;;;18.90;;
20415;SDS011;10367;52.202;5.996;2023-08-08T00:34:34;20.93;;;18.83;;
20415;SDS011;10367;52.202;5.996;2023-08-08T00:37:03;21.73;;;19.50;;
20415;SDS011;10367;52.202;5.996;2023-08-08T00:39:31;22.17;;;20.07;;
20415;SDS011;10367;52.202;5.996;2023-08-08T00:42:02;20.20;;;18.37;;
20415;SDS011;10367;52.202;5.996;2023-08-08T00:44:31;22.50;;;20.23;;
20415;SDS011;10367;52.202;5.996;2023-08-08T00:47:02;19.97;;;18.13;;
20415;SDS011;10367;52.202;5.996;2023-08-08T00:49:31;22.67;;;20.23;;
20415;SDS011;10367;52.202;5.996;2023-08-08T00:52:00;19.27;;;17.47;;
20415;SDS011;10367;52.202;5.996;2023-08-08T00:54:29;22.13;;;18.83;;
20415;SDS011;10367;52.202;5.996;2023-08-08T00:57:01;19.13;;;17.30;;
20415;SDS011;10367;52.202;5.996;2023-08-08T00:59:30;20.87;;;18.73;;
20415;SDS011;10367;52.202;5.996;2023-08-08T01:02:00;20.53;;;18.47;;
20415;SDS011;10367;52.202;5.996;2023-08-08T01:04:29;23.53;;;20.57;;
20415;SDS011;10367;52.202;5.996;2023-08-08T01:06:58;21.23;;;19.03;;
20415;SDS011;10367;52.202;5.996;2023-08-08T01:09:36;20.67;;;18.67;;
20415;SDS011;10367;52.202;5.996;2023-08-08T01:12:08;20.97;;;19.00;;
20415;SDS011;10367;52.202;5.996;2023-08-08T01:14:41;22.47;;;18.03;;
20415;SDS011;10367;52.202;5.996;2023-08-08T01:17:12;19.83;;;17.63;;
20415;SDS011;10367;52.202;5.996;2023-08-08T01:19:42;21.53;;;19.43;;
20415;SDS011;10367;52.202;5.996;2023-08-08T01:22:14;21.37;;;19.23;;
20415;SDS011;10367;52.202;5.996;2023-08-08T01:24:52;18.90;;;17.30;;
20415;SDS011;10367;52.202;5.996;2023-08-08T01:27:22;21.63;;;19.50;;
20415;SDS011;10367;52.202;5.996;2023-08-08T01:29:52;21.17;;;19.03;;
20415;SDS011;10367;52.202;5.996;2023-08-08T01:32:23;19.73;;;17.70;;
20415;SDS011;10367;52.202;5.996;2023-08-08T01:34:56;19.83;;;18.07;;
20415;SDS011;10367;52.202;5.996;2023-08-08T01:37:28;19.43;;;17.33;;
20415;SDS011;10367;52.202;5.996;2023-08-08T01:40:02;20.27;;;17.93;;
20415;SDS011;10367;52.202;5.996;2023-08-08T01:42:33;22.83;;;19.63;;
20415;SDS011;10367;52.202;5.996;2023-08-08T01:45:02;19.50;;;17.70;;
20415;SDS011;10367;52.202;5.996;2023-08-08T01:47:31;21.23;;;17.67;;
20415;SDS011;10367;52.202;5.996;2023-08-08T01:50:00;19.73;;;17.73;;
20415;SDS011;10367;52.202;5.996;2023-08-08T01:52:29;24.30;;;19.00;;
20415;SDS011;10367;52.202;5.996;2023-08-08T01:54:58;20.23;;;17.33;;
20415;SDS011;10367;52.202;5.996;2023-08-08T01:57:28;20.07;;;18.10;;
20415;SDS011;10367;52.202;5.996;2023-08-08T01:59:57;20.53;;;18.53;;
20415;SDS011;10367;52.202;5.996;2023-08-08T02:02:26;23.53;;;18.77;;
20415;SDS011;10367;52.202;5.996;2023-08-08T02:04:55;20.23;;;17.67;;
20415;SDS011;10367;52.202;5.996;2023-08-08T02:07:23;25.40;;;18.60;;
20415;SDS011;10367;52.202;5.996;2023-08-08T02:09:52;20.53;;;18.57;;
20415;SDS011;10367;52.202;5.996;2023-08-08T02:12:22;21.47;;;18.33;;
20415;SDS011;10367;52.202;5.996;2023-08-08T02:14:52;19.13;;;17.57;;
20415;SDS011;10367;52.202;5.996;2023-08-08T02:17:21;21.67;;;19.57;;
20415;SDS011;10367;52.202;5.996;2023-08-08T02:19:50;21.17;;;18.13;;
20415;SDS011;10367;52.202;5.996;2023-08-08T02:22:19;20.83;;;18.83;;
20415;SDS011;10367;52.202;5.996;2023-08-08T02:24:48;19.03;;;17.47;;
20415;SDS011;10367;52.202;5.996;2023-08-08T02:27:17;20.63;;;18.63;;
20415;SDS011;10367;52.202;5.996;2023-08-08T02:29:45;18.43;;;16.83;;
20415;SDS011;10367;52.202;5.996;2023-08-08T02:32:15;19.47;;;17.77;;
20415;SDS011;10367;52.202;5.996;2023-08-08T02:34:44;21.00;;;18.67;;
20415;SDS011;10367;52.202;5.996;2023-08-08T02:37:13;24.03;;;18.23;;
20415;SDS011;10367;52.202;5.996;2023-08-08T02:39:42;19.43;;;17.53;;
20415;SDS011;10367;52.202;5.996;2023-08-08T02:42:14;19.83;;;18.00;;
20415;SDS011;10367;52.202;5.996;2023-08-08T02:44:43;20.30;;;17.73;;
20415;SDS011;10367;52.202;5.996;2023-08-08T02:47:12;21.97;;;18.80;;
20415;SDS011;10367;52.202;5.996;2023-08-08T02:49:42;21.93;;;17.80;;
20415;SDS011;10367;52.202;5.996;2023-08-08T02:52:11;19.17;;;17.33;;
20415;SDS011;10367;52.202;5.996;2023-08-08T02:54:40;18.27;;;16.60;;
20415;SDS011;10367;52.202;5.996;2023-08-08T02:57:09;21.73;;;18.53;;
20415;SDS011;10367;52.202;5.996;2023-08-08T02:59:38;20.37;;;17.50;;
20415;SDS011;10367;52.202;5.996;2023-08-08T03:02:07;20.67;;;18.53;;
20415;SDS011;10367;52.202;5.996;2023-08-08T03:04:36;23.20;;;19.67;;
20415;SDS011;10367;52.202;5.996;2023-08-08T03:07:07;22.40;;;17.80;;
20415;SDS011;10367;52.202;5.996;2023-08-08T03:09:35;20.73;;;18.70;;
20415;SDS011;10367;52.202;5.996;2023-08-08T03:12:05;21.93;;;18.60;;
20415;SDS011;10367;52.202;5.996;2023-08-08T03:14:37;25.50;;;20.13;;
20415;SDS011;10367;52.202;5.996;2023-08-08T03:17:06;20.77;;;18.80;;
20415;SDS011;10367;52.202;5.996;2023-08-08T03:19:35;21.53;;;18.80;;
20415;SDS011;10367;52.202;5.996;2023-08-08T03:22:04;22.20;;;18.47;;
20415;SDS011;10367;52.202;5.996;2023-08-08T03:24:34;20.80;;;18.77;;
20415;SDS011;10367;52.202;5.996;2023-08-08T03:27:03;19.63;;;17.77;;
20415;SDS011;10367;52.202;5.996;2023-08-08T03:29:35;21.07;;;18.93;;
20415;SDS011;10367;52.202;5.996;2023-08-08T03:32:19;22.37;;;18.67;;
20415;SDS011;10367;52.202;5.996;2023-08-08T03:34:48;19.83;;;17.83;;
20415;SDS011;10367;52.202;5.996;2023-08-08T03:37:17;18.70;;;16.77;;
20415;SDS011;10367;52.202;5.996;2023-08-08T03:39:47;19.80;;;17.87;;
20415;SDS011;10367;52.202;5.996;2023-08-08T03:42:16;20.73;;;18.83;;
20415;SDS011;10367;52.202;5.996;2023-08-08T03:44:45;18.37;;;16.33;;
20415;SDS011;10367;52.202;5.996;2023-08-08T03:47:13;21.43;;;18.20;;
20415;SDS011;10367;52.202;5.996;2023-08-08T03:49:46;22.17;;;17.60;;
20415;SDS011;10367;52.202;5.996;2023-08-08T03:52:14;19.00;;;17.37;;
20415;SDS011;10367;52.202;5.996;2023-08-08T03:54:44;19.33;;;17.60;;
20415;SDS011;10367;52.202;5.996;2023-08-08T03:57:14;21.13;;;18.57;;
20415;SDS011;10367;52.202;5.996;2023-08-08T03:59:43;21.23;;;18.20;;
20415;SDS011;10367;52.202;5.996;2023-08-08T04:02:12;18.90;;;17.30;;
20415;SDS011;10367;52.202;5.996;2023-08-08T04:04:41;25.10;;;18.87;;
20415;SDS011;10367;52.202;5.996;2023-08-08T04:07:09;22.37;;;18.10;;
20415;SDS011;10367;52.202;5.996;2023-08-08T04:09:38;25.23;;;20.53;;
20415;SDS011;10367;52.202;5.996;2023-08-08T04:12:08;21.57;;;19.27;;
20415;SDS011;10367;52.202;5.996;2023-08-08T04:14:38;22.50;;;20.10;;
20415;SDS011;10367;52.202;5.996;2023-08-08T04:17:07;19.63;;;17.77;;
20415;SDS011;10367;52.202;5.996;2023-08-08T04:19:37;20.70;;;18.60;;
20415;SDS011;10367;52.202;5.996;2023-08-08T04:22:05;22.47;;;20.10;;
20415;SDS011;10367;52.202;5.996;2023-08-08T04:24:34;22.50;;;19.43;;
20415;SDS011;10367;52.202;5.996;2023-08-08T04:27:03;21.03;;;18.90;;
20415;SDS011;10367;52.202;5.996;2023-08-08T04:29:32;23.83;;;20.43;;
20415;SDS011;10367;52.202;5.996;2023-08-08T04:32:02;20.23;;;18.33;;
20415;SDS011;10367;52.202;5.996;2023-08-08T04:34:31;22.27;;;19.90;;
20415;SDS011;10367;52.202;5.996;2023-08-08T04:37:00;19.70;;;17.80;;
20415;SDS011;10367;52.202;5.996;2023-08-08T04:39:29;21.97;;;19.53;;
20415;SDS011;10367;52.202;5.996;2023-08-08T04:41:58;21.63;;;18.70;;
20415;SDS011;10367;52.202;5.996;2023-08-08T04:44:27;19.73;;;18.00;;
20415;SDS011;10367;52.202;5.996;2023-08-08T04:46:57;24.73;;;19.47;;
20415;SDS011;10367;52.202;5.996;2023-08-08T04:49:27;25.50;;;19.47;;
20415;SDS011;10367;52.202;5.996;2023-08-08T04:54:44;18.97;;;17.27;;
20415;SDS011;10367;52.202;5.996;2023-08-08T04:57:13;23.90;;;19.20;;
20415;SDS011;10367;52.202;5.996;2023-08-08T04:59:42;25.23;;;20.20;;
20415;SDS011;10367;52.202;5.996;2023-08-08T05:02:10;21.50;;;19.53;;
20415;SDS011;10367;52.202;5.996;2023-08-08T05:04:40;21.77;;;19.57;;
20415;SDS011;10367;52.202;5.996;2023-08-08T05:07:09;20.00;;;17.87;;
20415;SDS011;10367;52.202;5.996;2023-08-08T05:09:38;18.23;;;16.67;;
20415;SDS011;10367;52.202;5.996;2023-08-08T05:12:07;22.67;;;18.80;;
20415;SDS011;10367;52.202;5.996;2023-08-08T05:14:36;19.03;;;17.23;;
20415;SDS011;10367;52.202;5.996;2023-08-08T05:17:05;22.00;;;19.60;;
20415;SDS011;10367;52.202;5.996;2023-08-08T05:19:34;22.70;;;19.70;;
20415;SDS011;10367;52.202;5.996;2023-08-08T05:22:05;22.13;;;19.93;;
20415;SDS011;10367;52.202;5.996;2023-08-08T05:24:36;22.47;;;19.03;;
20415;SDS011;10367;52.202;5.996;2023-08-08T05:29:52;21.10;;;19.07;;
20415;SDS011;10367;52.202;5.996;2023-08-08T05:32:21;20.00;;;18.13;;
20415;SDS011;10367;52.202;5.996;2023-08-08T05:34:50;21.07;;;19.07;;
20415;SDS011;10367;52.202;5.996;2023-08-08T05:37:21;20.47;;;18.33;;
20415;SDS011;10367;52.202;5.996;2023-08-08T05:39:57;20.17;;;18.50;;
20415;SDS011;10367;52.202;5.996;2023-08-08T05:42:26;21.60;;;19.43;;
20415;SDS011;10367;52.202;5.996;2023-08-08T05:44:56;23.17;;;20.00;;
20415;SDS011;10367;52.202;5.996;2023-08-08T05:47:25;19.43;;;17.90;;
20415;SDS011;10367;52.202;5.996;2023-08-08T05:49:54;20.70;;;18.10;;
20415;SDS011;10367;52.202;5.996;2023-08-08T05:52:25;22.47;;;18.97;;
20415;SDS011;10367;52.202;5.996;2023-08-08T05:54:57;20.27;;;18.20;;
20415;SDS011;10367;52.202;5.996;2023-08-08T05:57:26;24.93;;;19.37;;
20415;SDS011;10367;52.202;5.996;2023-08-08T05:59:55;18.87;;;16.97;;
20415;SDS011;10367;52.202;5.996;2023-08-08T06:02:27;25.57;;;19.93;;
20415;SDS011;10367;52.202;5.996;2023-08-08T06:04:56;17.60;;;15.87;;
20415;SDS011;10367;52.202;5.996;2023-08-08T06:07:26;20.00;;;18.03;;
20415;SDS011;10367;52.202;5.996;2023-08-08T06:09:55;18.33;;;16.67;;
20415;SDS011;10367;52.202;5.996;2023-08-08T06:12:24;25.20;;;19.07;;
20415;SDS011;10367;52.202;5.996;2023-08-08T06:14:53;21.57;;;18.27;;
20415;SDS011;10367;52.202;5.996;2023-08-08T06:17:28;21.20;;;17.70;;
20415;SDS011;10367;52.202;5.996;2023-08-08T06:19:57;20.33;;;18.40;;
20415;SDS011;10367;52.202;5.996;2023-08-08T06:22:27;21.10;;;18.83;;
20415;SDS011;10367;52.202;5.996;2023-08-08T06:25:03;19.57;;;17.13;;
20415;SDS011;10367;52.202;5.996;2023-08-08T06:27:32;20.13;;;18.17;;
20415;SDS011;10367;52.202;5.996;2023-08-08T06:30:01;22.87;;;20.47;;
20415;SDS011;10367;52.202;5.996;2023-08-08T06:32:31;22.23;;;19.93;;
20415;SDS011;10367;52.202;5.996;2023-08-08T06:35:00;23.00;;;18.17;;
20415;SDS011;10367;52.202;5.996;2023-08-08T06:37:30;23.80;;;20.57;;
20415;SDS011;10367;52.202;5.996;2023-08-08T06:39:59;21.53;;;19.43;;
20415;SDS011;10367;52.202;5.996;2023-08-08T06:42:28;20.50;;;18.70;;
20415;SDS011;10367;52.202;5.996;2023-08-08T06:44:57;22.07;;;19.20;;
20415;SDS011;10367;52.202;5.996;2023-08-08T06:47:26;20.73;;;18.80;;
20415;SDS011;10367;52.202;5.996;2023-08-08T06:49:55;20.50;;;18.33;;
20415;SDS011;10367;52.202;5.996;2023-08-08T06:52:23;19.20;;;17.43;;
20415;SDS011;10367;52.202;5.996;2023-08-08T06:54:54;18.13;;;16.53;;
20415;SDS011;10367;52.202;5.996;2023-08-08T06:57:23;18.60;;;16.87;;
20415;SDS011;10367;52.202;5.996;2023-08-08T06:59:52;22.33;;;17.70;;
20415;SDS011;10367;52.202;5.996;2023-08-08T07:02:23;19.37;;;17.57;;
20415;SDS011;10367;52.202;5.996;2023-08-08T07:04:53;17.57;;;16.23;;
20415;SDS011;10367;52.202;5.996;2023-08-08T07:07:21;19.80;;;17.93;;
20415;SDS011;10367;52.202;5.996;2023-08-08T07:09:50;17.17;;;15.97;;
20415;SDS011;10367;52.202;5.996;2023-08-08T07:12:20;22.07;;;19.87;;
20415;SDS011;10367;52.202;5.996;2023-08-08T07:14:49;18.63;;;17.23;;
20415;SDS011;10367;52.202;5.996;2023-08-08T07:17:18;18.67;;;17.00;;
20415;SDS011;10367;52.202;5.996;2023-08-08T07:19:47;18.10;;;16.67;;
20415;SDS011;10367;52.202;5.996;2023-08-08T07:22:29;21.17;;;19.20;;
20415;SDS011;10367;52.202;5.996;2023-08-08T07:24:59;20.40;;;18.57;;
20415;SDS011;10367;52.202;5.996;2023-08-08T07:27:32;18.90;;;17.13;;
20415;SDS011;10367;52.202;5.996;2023-08-08T07:30:09;18.83;;;16.93;;
20415;SDS011;10367;52.202;5.996;2023-08-08T07:32:41;21.20;;;18.70;;
20415;SDS011;10367;52.202;5.996;2023-08-08T07:35:10;21.43;;;19.17;;
20415;SDS011;10367;52.202;5.996;2023-08-08T07:37:39;20.13;;;18.37;;
20415;SDS011;10367;52.202;5.996;2023-08-08T07:40:14;18.43;;;16.70;;
20415;SDS011;10367;52.202;5.996;2023-08-08T07:42:46;17.73;;;16.27;;
20415;SDS011;10367;52.202;5.996;2023-08-08T07:45:16;18.53;;;16.77;;
20415;SDS011;10367;52.202;5.996;2023-08-08T07:47:45;18.67;;;16.93;;
20415;SDS011;10367;52.202;5.996;2023-08-08T07:50:14;17.93;;;16.60;;
20415;SDS011;10367;52.202;5.996;2023-08-08T07:52:45;18.60;;;17.20;;
20415;SDS011;10367;52.202;5.996;2023-08-08T07:55:19;18.03;;;16.63;;
20415;SDS011;10367;52.202;5.996;2023-08-08T07:57:51;16.97;;;15.80;;
20415;SDS011;10367;52.202;5.996;2023-08-08T08:00:21;19.00;;;16.67;;
20415;SDS011;10367;52.202;5.996;2023-08-08T08:02:52;17.83;;;16.43;;
20415;SDS011;10367;52.202;5.996;2023-08-08T08:05:21;21.87;;;19.80;;
20415;SDS011;10367;52.202;5.996;2023-08-08T08:07:50;19.67;;;17.10;;
20415;SDS011;10367;52.202;5.996;2023-08-08T08:10:19;17.30;;;16.10;;
20415;SDS011;10367;52.202;5.996;2023-08-08T08:12:48;19.57;;;17.97;;
20415;SDS011;10367;52.202;5.996;2023-08-08T08:15:19;17.67;;;16.47;;
20415;SDS011;10367;52.202;5.996;2023-08-08T08:17:48;18.87;;;17.47;;
20415;SDS011;10367;52.202;5.996;2023-08-08T08:20:17;18.37;;;16.90;;
20415;SDS011;10367;52.202;5.996;2023-08-08T08:22:46;20.33;;;18.33;;
20415;SDS011;10367;52.202;5.996;2023-08-08T08:25:15;18.87;;;17.33;;
20415;SDS011;10367;52.202;5.996;2023-08-08T08:27:43;17.90;;;16.73;;
20415;SDS011;10367;52.202;5.996;2023-08-08T08:30:12;19.57;;;18.10;;
20415;SDS011;10367;52.202;5.996;2023-08-08T08:32:45;19.87;;;18.27;;
20415;SDS011;10367;52.202;5.996;2023-08-08T08:35:17;20.20;;;18.60;;
20415;SDS011;10367;52.202;5.996;2023-08-08T08:37:47;20.13;;;18.17;;
20415;SDS011;10367;52.202;5.996;2023-08-08T08:40:16;18.37;;;16.97;;
20415;SDS011;10367;52.202;5.996;2023-08-08T08:42:45;19.43;;;17.80;;
20415;SDS011;10367;52.202;5.996;2023-08-08T08:45:16;19.50;;;18.10;;
20415;SDS011;10367;52.202;5.996;2023-08-08T08:47:49;20.07;;;18.53;;
20415;SDS011;10367;52.202;5.996;2023-08-08T08:50:23;19.53;;;17.93;;
20415;SDS011;10367;52.202;5.996;2023-08-08T08:52:56;18.70;;;17.43;;
20415;SDS011;10367;52.202;5.996;2023-08-08T08:55:26;19.00;;;17.87;;
20415;SDS011;10367;52.202;5.996;2023-08-08T08:57:55;18.33;;;17.20;;
20415;SDS011;10367;52.202;5.996;2023-08-08T09:00:24;18.23;;;17.17;;
20415;SDS011;10367;52.202;5.996;2023-08-08T09:02:55;19.27;;;18.13;;
20415;SDS011;10367;52.202;5.996;2023-08-08T09:05:24;20.87;;;19.43;;
20415;SDS011;10367;52.202;5.996;2023-08-08T09:07:54;19.07;;;17.63;;
20415;SDS011;10367;52.202;5.996;2023-08-08T09:10:24;20.20;;;18.80;;
20415;SDS011;10367;52.202;5.996;2023-08-08T09:12:55;19.67;;;18.53;;
20415;SDS011;10367;52.202;5.996;2023-08-08T09:15:24;20.40;;;19.00;;
20415;SDS011;10367;52.202;5.996;2023-08-08T09:17:54;19.03;;;17.83;;
20415;SDS011;10367;52.202;5.996;2023-08-08T09:20:24;19.67;;;18.13;;
20415;SDS011;10367;52.202;5.996;2023-08-08T09:22:54;20.37;;;19.17;;
20415;SDS011;10367;52.202;5.996;2023-08-08T09:25:23;20.00;;;18.80;;
20415;SDS011;10367;52.202;5.996;2023-08-08T09:27:52;18.87;;;17.87;;
20415;SDS011;10367;52.202;5.996;2023-08-08T09:30:21;20.47;;;18.97;;
20415;SDS011;10367;52.202;5.996;2023-08-08T09:32:50;21.70;;;20.30;;
20415;SDS011;10367;52.202;5.996;2023-08-08T09:35:22;20.10;;;18.70;;
20415;SDS011;10367;52.202;5.996;2023-08-08T09:37:52;20.23;;;19.03;;
20415;SDS011;10367;52.202;5.996;2023-08-08T09:40:22;20.40;;;19.13;;
20415;SDS011;10367;52.202;5.996;2023-08-08T09:42:51;21.07;;;19.57;;
20415;SDS011;10367;52.202;5.996;2023-08-08T09:45:20;20.07;;;18.97;;
20415;SDS011;10367;52.202;5.996;2023-08-08T09:47:49;20.00;;;18.37;;
20415;SDS011;10367;52.202;5.996;2023-08-08T09:50:20;20.23;;;19.03;;
20415;SDS011;10367;52.202;5.996;2023-08-08T09:52:49;20.53;;;19.33;;
20415;SDS011;10367;52.202;5.996;2023-08-08T09:55:20;21.00;;;19.33;;
20415;SDS011;10367;52.202;5.996;2023-08-08T09:57:50;19.63;;;18.57;;
20415;SDS011;10367;52.202;5.996;2023-08-08T10:00:20;22.17;;;20.60;;
20415;SDS011;10367;52.202;5.996;2023-08-08T10:02:49;20.57;;;19.33;;
20415;SDS011;10367;52.202;5.996;2023-08-08T10:05:18;20.40;;;19.00;;
20415;SDS011;10367;52.202;5.996;2023-08-08T10:07:48;20.47;;;19.10;;
20415;SDS011;10367;52.202;5.996;2023-08-08T10:10:17;20.03;;;18.93;;
20415;SDS011;10367;52.202;5.996;2023-08-08T10:12:47;21.00;;;19.70;;
20415;SDS011;10367;52.202;5.996;2023-08-08T10:15:16;20.93;;;19.63;;
20415;SDS011;10367;52.202;5.996;2023-08-08T10:17:45;21.23;;;19.60;;
20415;SDS011;10367;52.202;5.996;2023-08-08T10:20:14;21.33;;;20.03;;
20415;SDS011;10367;52.202;5.996;2023-08-08T10:22:49;20.13;;;18.93;;
20415;SDS011;10367;52.202;5.996;2023-08-08T10:25:25;21.50;;;20.20;;
20415;SDS011;10367;52.202;5.996;2023-08-08T10:28:02;21.73;;;20.43;;
20415;SDS011;10367;52.202;5.996;2023-08-08T10:30:52;21.67;;;20.27;;
20415;SDS011;10367;52.202;5.996;2023-08-08T10:33:22;20.73;;;19.43;;
20415;SDS011;10367;52.202;5.996;2023-08-08T10:35:58;21.63;;;20.10;;
20415;SDS011;10367;52.202;5.996;2023-08-08T10:38:41;20.83;;;19.27;;
20415;SDS011;10367;52.202;5.996;2023-08-08T10:41:11;24.17;;;22.30;;
20415;SDS011;10367;52.202;5.996;2023-08-08T10:43:47;23.20;;;21.43;;
20415;SDS011;10367;52.202;5.996;2023-08-08T10:46:28;22.70;;;21.23;;
20415;SDS011;10367;52.202;5.996;2023-08-08T10:48:58;23.43;;;21.83;;
20415;SDS011;10367;52.202;5.996;2023-08-08T10:51:33;22.07;;;20.70;;
20415;SDS011;10367;52.202;5.996;2023-08-08T10:54:06;20.90;;;19.50;;
20415;SDS011;10367;52.202;5.996;2023-08-08T10:56:39;23.67;;;21.67;;
20415;SDS011;10367;52.202;5.996;2023-08-08T10:59:13;21.47;;;20.03;;
20415;SDS011;10367;52.202;5.996;2023-08-08T11:01:46;20.80;;;19.37;;
20415;SDS011;10367;52.202;5.996;2023-08-08T11:04:17;22.07;;;20.60;;
20415;SDS011;10367;52.202;5.996;2023-08-08T11:06:47;21.63;;;20.23;;
20415;SDS011;10367;52.202;5.996;2023-08-08T11:09:18;21.70;;;20.37;;
20415;SDS011;10367;52.202;5.996;2023-08-08T11:11:48;22.40;;;20.93;;
20415;SDS011;10367;52.202;5.996;2023-08-08T11:14:18;21.47;;;19.97;;
20415;SDS011;10367;52.202;5.996;2023-08-08T11:16:48;29.03;;;26.33;;
20415;SDS011;10367;52.202;5.996;2023-08-08T11:19:19;26.87;;;24.67;;
20415;SDS011;10367;52.202;5.996;2023-08-08T11:21:50;23.33;;;21.83;;
20415;SDS011;10367;52.202;5.996;2023-08-08T11:24:20;22.13;;;20.73;;
20415;SDS011;10367;52.202;5.996;2023-08-08T11:26:48;22.03;;;20.53;;
20415;SDS011;10367;52.202;5.996;2023-08-08T11:29:18;22.67;;;21.17;;
20415;SDS011;10367;52.202;5.996;2023-08-08T11:31:47;22.80;;;21.20;;
20415;SDS011;10367;52.202;5.996;2023-08-08T11:34:16;22.40;;;21.07;;
20415;SDS011;10367;52.202;5.996;2023-08-08T11:36:45;22.20;;;20.70;;
20415;SDS011;10367;52.202;5.996;2023-08-08T11:39:15;26.17;;;24.00;;
20415;SDS011;10367;52.202;5.996;2023-08-08T11:41:46;28.60;;;25.83;;
20415;SDS011;10367;52.202;5.996;2023-08-08T11:44:15;21.30;;;20.00;;
20415;SDS011;10367;52.202;5.996;2023-08-08T11:46:44;23.37;;;21.77;;
20415;SDS011;10367;52.202;5.996;2023-08-08T11:49:14;21.90;;;20.60;;
20415;SDS011;10367;52.202;5.996;2023-08-08T11:51:44;22.77;;;21.17;;
20415;SDS011;10367;52.202;5.996;2023-08-08T11:54:13;22.73;;;21.13;;
20415;SDS011;10367;52.202;5.996;2023-08-08T11:56:42;25.43;;;23.20;;
20415;SDS011;10367;52.202;5.996;2023-08-08T11:59:13;21.57;;;20.23;;
20415;SDS011;10367;52.202;5.996;2023-08-08T12:01:41;23.17;;;21.47;;
20415;SDS011;10367;52.202;5.996;2023-08-08T12:04:11;23.37;;;21.77;;
20415;SDS011;10367;52.202;5.996;2023-08-08T12:06:40;22.93;;;21.20;;
20415;SDS011;10367;52.202;5.996;2023-08-08T12:09:12;22.37;;;20.77;;
20415;SDS011;10367;52.202;5.996;2023-08-08T12:11:41;24.87;;;22.83;;
20415;SDS011;10367;52.202;5.996;2023-08-08T12:14:13;22.37;;;20.87;;
20415;SDS011;10367;52.202;5.996;2023-08-08T12:16:42;22.93;;;21.40;;
20415;SDS011;10367;52.202;5.996;2023-08-08T12:19:14;23.40;;;21.50;;
20415;SDS011;10367;52.202;5.996;2023-08-08T12:21:48;24.53;;;22.30;;
20415;SDS011;10367;52.202;5.996;2023-08-08T12:24:17;22.30;;;20.80;;
20415;SDS011;10367;52.202;5.996;2023-08-08T12:26:45;22.57;;;20.83;;
20415;SDS011;10367;52.202;5.996;2023-08-08T12:29:16;21.77;;;20.40;;
20415;SDS011;10367;52.202;5.996;2023-08-08T12:31:44;23.13;;;21.53;;
20415;SDS011;10367;52.202;5.996;2023-08-08T12:34:13;22.83;;;21.07;;
20415;SDS011;10367;52.202;5.996;2023-08-08T12:36:42;23.70;;;21.93;;
20415;SDS011;10367;52.202;5.996;2023-08-08T12:39:10;21.77;;;20.43;;
20415;SDS011;10367;52.202;5.996;2023-08-08T12:41:39;23.30;;;21.50;;
20415;SDS011;10367;52.202;5.996;2023-08-08T12:44:08;21.23;;;19.83;;
20415;SDS011;10367;52.202;5.996;2023-08-08T12:46:38;21.57;;;20.23;;
20415;SDS011;10367;52.202;5.996;2023-08-08T12:49:07;21.63;;;20.27;;
20415;SDS011;10367;52.202;5.996;2023-08-08T12:51:36;22.93;;;21.27;;
20415;SDS011;10367;52.202;5.996;2023-08-08T12:54:05;22.33;;;20.80;;
20415;SDS011;10367;52.202;5.996;2023-08-08T12:56:34;23.83;;;21.93;;
20415;SDS011;10367;52.202;5.996;2023-08-08T12:59:03;22.47;;;20.87;;
20415;SDS011;10367;52.202;5.996;2023-08-08T13:01:32;21.87;;;20.47;;
20415;SDS011;10367;52.202;5.996;2023-08-08T13:04:02;22.57;;;20.83;;
20415;SDS011;10367;52.202;5.996;2023-08-08T13:06:45;22.60;;;21.07;;
20415;SDS011;10367;52.202;5.996;2023-08-08T13:09:13;21.37;;;20.03;;
20415;SDS011;10367;52.202;5.996;2023-08-08T13:11:42;22.97;;;21.27;;
20415;SDS011;10367;52.202;5.996;2023-08-08T13:14:11;20.90;;;19.50;;
20415;SDS011;10367;52.202;5.996;2023-08-08T13:16:40;23.57;;;21.77;;
20415;SDS011;10367;52.202;5.996;2023-08-08T13:19:10;22.53;;;20.97;;
20415;SDS011;10367;52.202;5.996;2023-08-08T13:21:39;21.93;;;20.53;;
20415;SDS011;10367;52.202;5.996;2023-08-08T13:24:13;21.53;;;19.93;;
20415;SDS011;10367;52.202;5.996;2023-08-08T13:26:42;23.23;;;21.50;;
20415;SDS011;10367;52.202;5.996;2023-08-08T13:29:11;22.03;;;20.43;;
20415;SDS011;10367;52.202;5.996;2023-08-08T13:31:40;23.07;;;21.33;;
20415;SDS011;10367;52.202;5.996;2023-08-08T13:34:13;20.67;;;19.37;;
20415;SDS011;10367;52.202;5.996;2023-08-08T13:36:44;23.40;;;21.43;;
20415;SDS011;10367;52.202;5.996;2023-08-08T13:39:13;22.40;;;20.70;;
20415;SDS011;10367;52.202;5.996;2023-08-08T13:41:42;22.60;;;20.87;;
20415;SDS011;10367;52.202;5.996;2023-08-08T13:44:10;20.83;;;19.43;;
20415;SDS011;10367;52.202;5.996;2023-08-08T13:46:39;22.73;;;20.97;;
20415;SDS011;10367;52.202;5.996;2023-08-08T13:49:08;21.67;;;20.27;;
20415;SDS011;10367;52.202;5.996;2023-08-08T13:51:38;21.73;;;20.23;;
20415;SDS011;10367;52.202;5.996;2023-08-08T13:54:09;21.60;;;20.00;;
20415;SDS011;10367;52.202;5.996;2023-08-08T13:56:38;24.00;;;21.73;;
20415;SDS011;10367;52.202;5.996;2023-08-08T13:59:06;21.43;;;19.57;;
20415;SDS011;10367;52.202;5.996;2023-08-08T14:01:35;22.97;;;21.10;;
20415;SDS011;10367;52.202;5.996;2023-08-08T14:04:11;22.63;;;20.97;;
20415;SDS011;10367;52.202;5.996;2023-08-08T14:06:42;23.03;;;21.33;;
20415;SDS011;10367;52.202;5.996;2023-08-08T14:09:11;22.33;;;20.73;;
20415;SDS011;10367;52.202;5.996;2023-08-08T14:11:41;24.20;;;22.17;;
20415;SDS011;10367;52.202;5.996;2023-08-08T14:14:10;22.53;;;20.80;;
20415;SDS011;10367;52.202;5.996;2023-08-08T14:16:39;23.83;;;21.73;;
20415;SDS011;10367;52.202;5.996;2023-08-08T14:19:07;22.83;;;21.03;;
20415;SDS011;10367;52.202;5.996;2023-08-08T14:21:36;24.83;;;22.70;;
20415;SDS011;10367;52.202;5.996;2023-08-08T14:24:06;22.50;;;20.83;;
20415;SDS011;10367;52.202;5.996;2023-08-08T14:26:35;21.97;;;20.43;;
20415;SDS011;10367;52.202;5.996;2023-08-08T14:29:04;22.47;;;20.90;;
20415;SDS011;10367;52.202;5.996;2023-08-08T14:31:33;23.97;;;22.03;;
20415;SDS011;10367;52.202;5.996;2023-08-08T14:34:28;22.83;;;21.07;;
20415;SDS011;10367;52.202;5.996;2023-08-08T14:36:57;21.97;;;20.50;;
20415;SDS011;10367;52.202;5.996;2023-08-08T14:39:28;21.17;;;19.67;;
20415;SDS011;10367;52.202;5.996;2023-08-08T14:41:57;21.67;;;20.23;;
20415;SDS011;10367;52.202;5.996;2023-08-08T14:44:26;22.47;;;20.63;;